createdAt,value
2018-02-22T00:02:05.772Z,24.05
2018-02-22T00:04:36.906Z,24.42
2018-02-22T00:07:06.896Z,23.30
2018-02-22T00:09:36.349Z,25.17
2018-02-22T00:12:05.777Z,23.98
2018-02-22T00:14:35.376Z,24.45
2018-02-22T00:17:04.831Z,26.83
2018-02-22T00:19:34.069Z,25.73
2018-02-22T00:22:03.637Z,21.25
2018-02-22T00:24:32.859Z,24.70
2018-02-22T00:27:02.240Z,23.52
2018-02-22T00:29:33.301Z,22.55
2018-02-22T00:32:02.692Z,24.92
2018-02-22T00:34:31.912Z,23.62
2018-02-22T00:37:01.144Z,22.60
2018-02-22T00:39:30.584Z,22.90
2018-02-22T00:41:59.820Z,21.60
2018-02-22T00:44:29.205Z,23.77
2018-02-22T00:46:59.201Z,22.70
2018-02-22T00:49:28.607Z,22.67
2018-02-22T00:51:58.448Z,24.52
2018-02-22T00:54:27.902Z,23.98
2018-02-22T00:56:57.316Z,24.85
2018-02-22T00:59:26.542Z,23.80
2018-02-22T01:01:55.898Z,23.67
2018-02-22T01:04:25.125Z,23.17
2018-02-22T01:06:55.289Z,22.87
2018-02-22T01:09:24.533Z,22.52
2018-02-22T01:11:54.276Z,24.63
2018-02-22T01:14:23.500Z,21.35
2018-02-22T01:16:52.957Z,24.35
2018-02-22T01:19:22.187Z,23.83
2018-02-22T01:21:51.534Z,24.90
2018-02-22T01:24:20.764Z,24.08
2018-02-22T01:26:50.163Z,23.40
2018-02-22T01:29:19.394Z,21.33
2018-02-22T01:31:48.637Z,20.17
2018-02-22T01:34:18.065Z,22.10
2018-02-22T01:36:47.341Z,24.75
2018-02-22T01:39:16.655Z,24.10
2018-02-22T01:41:45.903Z,23.60
2018-02-22T01:44:15.678Z,24.27
2018-02-22T01:46:45.086Z,24.15
2018-02-22T01:49:15.304Z,23.67
2018-02-22T01:51:44.568Z,23.80
2018-02-22T01:54:13.914Z,24.40
2018-02-22T01:56:43.148Z,22.42
2018-02-22T01:59:12.385Z,21.27
2018-02-22T02:01:41.809Z,23.33
2018-02-22T02:04:11.039Z,24.05
2018-02-22T02:06:40.417Z,23.62
2018-02-22T02:09:10.260Z,22.98
2018-02-22T02:11:39.629Z,22.40
2018-02-22T02:14:08.912Z,22.77
2018-02-22T02:16:38.187Z,22.62
2018-02-22T02:19:07.423Z,22.65
2018-02-22T02:21:36.721Z,23.55
2018-02-22T02:24:06.402Z,23.75
2018-02-22T02:26:36.005Z,23.73
2018-02-22T02:29:06.174Z,24.48
2018-02-22T02:31:35.561Z,23.52
2018-02-22T02:34:05.113Z,21.73
2018-02-22T02:36:34.363Z,22.70
2018-02-22T02:39:03.683Z,22.60
2018-02-22T02:41:33.389Z,22.35
2018-02-22T02:44:02.702Z,23.02
2018-02-22T02:46:32.400Z,22.83
2018-02-22T02:49:01.806Z,21.60
2018-02-22T02:51:31.046Z,21.65
2018-02-22T02:54:00.501Z,22.70
2018-02-22T02:56:29.796Z,22.08
2018-02-22T02:58:59.938Z,21.75
2018-02-22T03:01:29.665Z,22.42
2018-02-22T03:03:59.756Z,22.48
2018-02-22T03:06:29.309Z,21.85
2018-02-22T03:08:58.552Z,21.70
2018-02-22T03:11:28.124Z,22.42
2018-02-22T03:13:57.416Z,22.13
2018-02-22T03:16:26.993Z,23.42
2018-02-22T03:18:56.344Z,24.27
2018-02-22T03:21:26.499Z,23.02
2018-02-22T03:23:55.733Z,21.17
2018-02-22T03:26:25.852Z,21.30
2018-02-22T03:28:55.604Z,22.85
2018-02-22T03:31:25.389Z,23.70
2018-02-22T03:33:54.664Z,22.70
2018-02-22T03:36:24.799Z,24.52
2018-02-22T03:38:54.093Z,20.60
2018-02-22T03:41:23.874Z,20.77
2018-02-22T03:43:53.714Z,21.83
2018-02-22T03:46:23.020Z,22.95
2018-02-22T03:48:53.227Z,22.42
2018-02-22T03:51:23.255Z,24.10
2018-02-22T03:53:52.637Z,22.67
2018-02-22T03:56:22.471Z,21.73
2018-02-22T03:58:51.727Z,22.35
2018-02-22T04:01:21.201Z,23.55
2018-02-22T04:03:50.472Z,22.25
2018-02-22T04:06:20.609Z,22.52
2018-02-22T04:08:50.145Z,22.50
2018-02-22T04:11:19.903Z,20.73
2018-02-22T04:13:49.125Z,22.65
2018-02-22T04:16:18.501Z,23.50
2018-02-22T04:18:47.765Z,21.45
2018-02-22T04:21:16.996Z,22.65
2018-02-22T04:23:46.391Z,21.90
2018-02-22T04:26:15.629Z,20.50
2018-02-22T04:28:45.203Z,21.52
2018-02-22T04:31:14.416Z,20.88
2018-02-22T04:33:43.797Z,23.00
2018-02-22T04:36:13.036Z,22.48
2018-02-22T04:38:42.403Z,22.23
2018-02-22T04:41:12.454Z,22.08
2018-02-22T04:43:41.824Z,22.25
2018-02-22T04:46:11.058Z,20.70
2018-02-22T04:48:40.419Z,22.90
2018-02-22T04:51:09.866Z,23.73
2018-02-22T04:53:39.110Z,21.67
2018-02-22T04:56:08.532Z,22.92
2018-02-22T04:58:38.456Z,22.25
2018-02-22T05:01:08.586Z,20.58
2018-02-22T05:03:38.604Z,21.23
2018-02-22T05:06:08.337Z,20.58
2018-02-22T05:08:38.012Z,20.70
2018-02-22T05:11:07.416Z,22.83
2018-02-22T05:13:36.796Z,22.08
2018-02-22T05:16:06.020Z,22.00
2018-02-22T05:18:35.313Z,21.20
2018-02-22T05:21:04.812Z,21.17
2018-02-22T05:23:34.043Z,21.40
2018-02-22T05:26:03.275Z,21.27
2018-02-22T05:28:32.725Z,21.50
2018-02-22T05:31:02.666Z,21.30
2018-02-22T05:33:32.138Z,22.40
2018-02-22T05:36:01.763Z,22.65
2018-02-22T05:38:31.157Z,21.67
2018-02-22T05:41:00.384Z,21.55
2018-02-22T05:43:29.772Z,22.23
2018-02-22T05:45:59.763Z,21.55
2018-02-22T05:48:29.117Z,21.45
2018-02-22T05:50:58.344Z,23.27
2018-02-22T05:53:27.581Z,21.75
2018-02-22T05:55:56.984Z,20.20
2018-02-22T05:58:26.932Z,22.33
2018-02-22T06:00:56.413Z,21.45
2018-02-22T06:03:25.624Z,20.48
2018-02-22T06:05:54.970Z,18.48
2018-02-22T06:08:24.198Z,20.00
2018-02-22T06:10:53.592Z,21.02
2018-02-22T06:13:22.825Z,20.25
2018-02-22T06:15:52.203Z,19.30
2018-02-22T06:18:21.444Z,21.02
2018-02-22T06:20:51.616Z,19.83
2018-02-22T06:23:20.842Z,20.25
2018-02-22T06:25:50.113Z,20.62
2018-02-22T06:28:19.400Z,20.00
2018-02-22T06:30:48.640Z,19.48
2018-02-22T06:33:18.737Z,18.10
2018-02-22T06:35:49.404Z,18.00
2018-02-22T06:38:18.771Z,18.62
2018-02-22T06:40:48.000Z,19.48
2018-02-22T06:43:18.203Z,19.75
2018-02-22T06:45:47.832Z,18.98
2018-02-22T06:48:17.092Z,19.77
2018-02-22T06:50:46.822Z,19.73
2018-02-22T06:53:16.440Z,19.52
2018-02-22T06:55:46.449Z,18.27
2018-02-22T06:58:16.177Z,20.60
2018-02-22T07:00:46.077Z,19.27
2018-02-22T07:03:15.389Z,21.08
2018-02-22T07:05:45.995Z,19.87
2018-02-22T07:08:15.214Z,22.05
2018-02-22T07:10:44.696Z,20.95
2018-02-22T07:13:13.928Z,18.50
2018-02-22T07:15:43.326Z,22.15
2018-02-22T07:18:13.461Z,22.25
2018-02-22T07:20:43.416Z,20.77
2018-02-22T07:23:16.887Z,19.10
2018-02-22T07:25:43.472Z,22.70
2018-02-22T07:28:14.102Z,19.80
2018-02-22T07:30:43.427Z,20.33
2018-02-22T07:33:13.468Z,19.75
2018-02-22T07:35:43.202Z,19.70
2018-02-22T07:38:12.439Z,20.67
2018-02-22T07:40:41.852Z,18.85
2018-02-22T07:43:11.906Z,19.08
2018-02-22T07:45:41.985Z,19.65
2018-02-22T07:48:11.218Z,19.83
2018-02-22T07:50:40.574Z,20.52
2018-02-22T07:53:10.003Z,21.12
2018-02-22T07:55:40.118Z,21.05
2018-02-22T07:58:09.646Z,20.12
2018-02-22T08:00:39.834Z,20.35
2018-02-22T08:03:09.096Z,22.05
2018-02-22T08:05:38.370Z,20.65
2018-02-22T08:08:08.271Z,19.80
2018-02-22T08:10:37.480Z,21.67
2018-02-22T08:13:06.792Z,21.15
2018-02-22T08:15:36.021Z,18.62
2018-02-22T08:18:05.335Z,19.87
2018-02-22T08:20:34.569Z,20.48
2018-02-22T08:23:03.950Z,20.10
2018-02-22T08:25:33.774Z,19.85
2018-02-22T08:28:03.079Z,20.55
2018-02-22T08:30:32.600Z,19.17
2018-02-22T08:33:02.373Z,22.20
2018-02-22T08:35:31.689Z,19.60
2018-02-22T08:38:01.105Z,19.70
2018-02-22T08:40:30.426Z,19.80
2018-02-22T08:42:59.632Z,20.27
2018-02-22T08:45:28.870Z,22.48
2018-02-22T08:47:58.186Z,22.02
2018-02-22T08:50:27.408Z,21.73
2018-02-22T08:52:57.732Z,21.23
2018-02-22T08:55:27.360Z,23.33
2018-02-22T08:57:56.823Z,23.52
2018-02-22T09:00:26.045Z,23.48
2018-02-22T09:02:55.409Z,23.55
2018-02-22T09:05:24.954Z,23.90
2018-02-22T09:07:54.962Z,23.05
2018-02-22T09:10:24.350Z,22.15
2018-02-22T09:12:53.997Z,22.45
2018-02-22T09:15:23.352Z,24.85
2018-02-22T09:17:52.581Z,23.38
2018-02-22T09:20:21.884Z,24.92
2018-02-22T09:22:51.896Z,22.35
2018-02-22T09:25:21.193Z,22.90
2018-02-22T09:27:51.189Z,23.48
2018-02-22T09:30:20.526Z,24.42
2018-02-22T09:32:49.892Z,23.10
2018-02-22T09:35:19.125Z,22.48
2018-02-22T09:37:48.469Z,22.90
2018-02-22T09:40:17.693Z,24.17
2018-02-22T09:42:47.019Z,23.73
2018-02-22T09:45:16.241Z,21.27
2018-02-22T09:47:45.588Z,23.85
2018-02-22T09:50:14.831Z,21.23
2018-02-22T09:52:44.218Z,22.95
2018-02-22T09:55:14.218Z,23.60
2018-02-22T09:57:43.457Z,23.33
2018-02-22T10:00:12.776Z,26.00
2018-02-22T10:02:42.020Z,24.60
2018-02-22T10:05:11.649Z,20.73
2018-02-22T10:07:40.850Z,23.20
2018-02-22T10:10:10.924Z,23.12
2018-02-22T10:12:40.148Z,20.58
2018-02-22T10:15:09.553Z,20.48
2018-02-22T10:17:38.785Z,21.17
2018-02-22T10:20:08.162Z,20.60
2018-02-22T10:22:39.073Z,20.12
2018-02-22T10:25:08.388Z,18.42
2018-02-22T10:27:37.846Z,18.02
2018-02-22T10:30:07.073Z,18.48
2018-02-22T10:32:36.505Z,18.60
2018-02-22T10:35:05.735Z,19.10
2018-02-22T10:37:35.049Z,19.27
2018-02-22T10:40:04.281Z,17.87
2018-02-22T10:42:33.620Z,22.05
2018-02-22T10:45:02.906Z,17.65
2018-02-22T10:47:32.426Z,18.52
2018-02-22T10:50:01.805Z,19.65
2018-02-22T10:52:31.020Z,19.10
2018-02-22T10:55:00.329Z,18.87
2018-02-22T10:57:29.570Z,19.23
2018-02-22T10:59:58.861Z,20.85
2018-02-22T11:02:34.593Z,20.30
2018-02-22T11:05:04.012Z,18.20
2018-02-22T11:07:33.285Z,17.42
2018-02-22T11:10:03.792Z,17.00
2018-02-22T11:12:33.297Z,18.52
2018-02-22T11:15:02.550Z,17.73
2018-02-22T11:17:31.915Z,17.30
2018-02-22T11:20:02.341Z,16.45
2018-02-22T11:22:31.928Z,18.40
2018-02-22T11:25:01.482Z,18.70
2018-02-22T11:27:30.952Z,17.75
2018-02-22T11:30:00.960Z,17.20
2018-02-22T11:32:30.329Z,16.27
2018-02-22T11:34:59.583Z,17.60
2018-02-22T11:37:28.804Z,16.52
2018-02-22T11:39:58.111Z,16.55
2018-02-22T11:42:27.341Z,17.83
2018-02-22T11:44:57.165Z,18.75
2018-02-22T11:47:26.397Z,17.17
2018-02-22T11:49:57.140Z,18.37
2018-02-22T11:52:27.139Z,17.50
2018-02-22T11:54:56.540Z,17.37
2018-02-22T11:57:25.799Z,17.35
2018-02-22T11:59:55.976Z,18.75
2018-02-22T12:02:25.225Z,19.23
2018-02-22T12:04:55.264Z,18.12
2018-02-22T12:07:24.597Z,16.90
2018-02-22T12:09:54.585Z,15.63
2018-02-22T12:12:25.015Z,18.70
2018-02-22T12:14:54.278Z,18.52
2018-02-22T12:17:23.600Z,19.73
2018-02-22T12:19:52.828Z,17.55
2018-02-22T12:22:22.828Z,18.10
2018-02-22T12:24:52.338Z,19.70
2018-02-22T12:27:21.946Z,20.00
2018-02-22T12:29:51.264Z,18.60
2018-02-22T12:32:21.221Z,18.50
2018-02-22T12:34:51.096Z,22.42
2018-02-22T12:37:20.321Z,17.37
2018-02-22T12:39:49.709Z,18.25
2018-02-22T12:42:18.948Z,17.80
2018-02-22T12:44:48.253Z,16.60
2018-02-22T12:47:17.478Z,17.70
2018-02-22T12:49:46.832Z,18.55
2018-02-22T12:52:16.052Z,14.95
2018-02-22T12:54:45.285Z,16.95
2018-02-22T12:57:14.686Z,15.85
2018-02-22T12:59:43.916Z,14.27
2018-02-22T13:02:13.212Z,15.40
2018-02-22T13:04:42.442Z,20.30
2018-02-22T13:07:11.756Z,15.90
2018-02-22T13:09:40.985Z,16.10
2018-02-22T13:12:10.310Z,15.45
2018-02-22T13:14:40.319Z,15.23
2018-02-22T13:17:09.626Z,15.27
2018-02-22T13:19:38.852Z,13.85
2018-02-22T13:22:08.319Z,13.18
2018-02-22T13:24:38.316Z,15.70
2018-02-22T13:27:07.553Z,14.80
2018-02-22T13:29:37.040Z,12.37
2018-02-22T13:32:07.044Z,14.13
2018-02-22T13:34:37.885Z,13.65
2018-02-22T13:37:24.829Z,17.12
2018-02-22T13:39:54.306Z,14.43
2018-02-22T13:42:23.571Z,14.98
2018-02-22T13:45:10.720Z,16.10
2018-02-22T13:47:39.946Z,16.52
2018-02-22T13:50:26.933Z,15.90
2018-02-22T13:52:56.174Z,15.85
2018-02-22T13:55:25.482Z,16.35
2018-02-22T13:57:54.708Z,13.35
2018-02-22T14:00:41.690Z,14.93
2018-02-22T14:03:10.930Z,13.70
2018-02-22T14:05:40.373Z,16.00
2018-02-22T14:08:10.368Z,14.77
2018-02-22T14:10:39.596Z,14.73
2018-02-22T14:13:09.660Z,15.63
2018-02-22T14:15:38.924Z,14.80
2018-02-22T14:18:08.293Z,15.20
2018-02-22T14:20:37.522Z,13.25
2018-02-22T14:23:07.296Z,13.98
2018-02-22T14:25:36.540Z,13.77
2018-02-22T14:28:05.910Z,14.02
2018-02-22T14:30:35.137Z,12.55
2018-02-22T14:33:04.522Z,14.85
2018-02-22T14:35:34.057Z,15.00
2018-02-22T14:38:03.717Z,13.55
2018-02-22T14:40:33.141Z,12.35
2018-02-22T14:43:02.748Z,12.50
2018-02-22T14:45:32.830Z,13.10
2018-02-22T14:48:02.370Z,13.73
2018-02-22T14:50:32.464Z,14.23
2018-02-22T14:53:01.679Z,14.87
2018-02-22T14:55:30.982Z,16.37
2018-02-22T14:58:00.216Z,14.65
2018-02-22T15:00:29.568Z,14.13
2018-02-22T15:02:58.793Z,16.40
2018-02-22T15:05:28.898Z,15.38
2018-02-22T15:07:58.140Z,14.38
2018-02-22T15:10:28.312Z,15.80
2018-02-22T15:12:59.613Z,14.95
2018-02-22T15:15:28.848Z,16.08
2018-02-22T15:17:58.372Z,15.77
2018-02-22T15:20:27.593Z,16.65
2018-02-22T15:22:56.985Z,17.75
2018-02-22T15:25:26.213Z,16.52
2018-02-22T15:27:56.373Z,16.60
2018-02-22T15:30:25.602Z,15.70
2018-02-22T15:32:55.000Z,16.40
2018-02-22T15:35:24.499Z,15.48
2018-02-22T15:37:53.922Z,16.67
2018-02-22T15:40:23.204Z,15.63
2018-02-22T15:42:52.441Z,14.98
2018-02-22T15:45:22.660Z,15.85
2018-02-22T15:47:51.888Z,15.02
2018-02-22T15:50:21.336Z,16.02
2018-02-22T15:52:50.561Z,15.52
2018-02-22T15:55:19.923Z,14.95
2018-02-22T15:57:49.620Z,14.75
2018-02-22T16:00:19.141Z,15.23
2018-02-22T16:02:48.381Z,17.40
2018-02-22T16:05:17.608Z,17.33
2018-02-22T16:07:48.278Z,18.87
2018-02-22T16:10:18.271Z,20.55
2018-02-22T16:12:47.612Z,19.52
2018-02-22T16:15:16.837Z,20.40
2018-02-22T16:17:46.800Z,20.15
2018-02-22T16:20:16.027Z,20.77
2018-02-22T16:22:46.135Z,20.88
2018-02-22T16:25:15.358Z,20.73
2018-02-22T16:27:44.677Z,20.98
2018-02-22T16:30:14.069Z,21.75
2018-02-22T16:32:43.523Z,19.90
2018-02-22T16:35:12.756Z,21.80
2018-02-22T16:37:41.978Z,21.33
2018-02-22T16:40:11.335Z,22.83
2018-02-22T16:42:40.551Z,18.83
2018-02-22T16:45:10.627Z,20.75
2018-02-22T16:47:39.851Z,20.48
2018-02-22T16:50:09.253Z,20.80
2018-02-22T16:52:38.485Z,20.83
2018-02-22T16:55:07.854Z,19.67
2018-02-22T16:57:37.112Z,18.90
2018-02-22T17:00:06.483Z,19.27
2018-02-22T17:02:36.100Z,19.42
2018-02-22T17:05:07.538Z,21.40
2018-02-22T17:07:37.550Z,19.58
2018-02-22T17:10:06.797Z,20.90
2018-02-22T17:12:36.452Z,21.20
2018-02-22T17:15:05.993Z,20.20
2018-02-22T17:17:46.261Z,21.55
2018-02-22T17:20:15.519Z,22.73
2018-02-22T17:22:45.122Z,20.20
2018-02-22T17:25:14.368Z,22.48
2018-02-22T17:27:49.254Z,21.98
2018-02-22T17:30:26.117Z,21.95
2018-02-22T17:32:55.416Z,20.90
2018-02-22T17:35:30.078Z,21.12
2018-02-22T17:38:03.725Z,21.23
2018-02-22T17:40:34.887Z,21.95
2018-02-22T17:43:04.716Z,18.58
2018-02-22T17:45:34.100Z,19.90
2018-02-22T17:48:04.210Z,15.70
2018-02-22T17:50:34.356Z,17.85
2018-02-22T17:53:03.586Z,19.98
2018-02-22T17:55:32.914Z,20.70
2018-02-22T17:58:02.744Z,19.67
2018-02-22T18:00:32.144Z,19.55
2018-02-22T18:03:01.894Z,18.35
2018-02-22T18:05:31.194Z,17.52
2018-02-22T18:08:00.421Z,12.80
2018-02-22T18:10:29.800Z,11.30
2018-02-22T18:12:59.791Z,11.98
2018-02-22T18:15:29.158Z,12.55
2018-02-22T18:17:58.382Z,12.05
2018-02-22T18:20:27.710Z,10.68
2018-02-22T18:22:56.945Z,12.02
2018-02-22T18:25:26.176Z,10.98
2018-02-22T18:27:56.040Z,13.35
2018-02-22T18:30:25.287Z,10.25
2018-02-22T18:32:54.592Z,15.50
2018-02-22T18:35:24.350Z,12.25
2018-02-22T18:37:59.409Z,12.37
2018-02-22T18:40:34.082Z,8.50
2018-02-22T18:43:08.948Z,8.10
2018-02-22T18:45:38.168Z,8.75
2018-02-22T18:48:07.502Z,7.95
2018-02-22T18:50:36.731Z,8.05
2018-02-22T18:53:06.262Z,10.93
2018-02-22T18:55:36.266Z,8.38
2018-02-22T18:58:05.628Z,8.10
2018-02-22T19:00:34.867Z,7.40
2018-02-22T19:03:04.234Z,6.80
2018-02-22T19:05:34.778Z,8.68
2018-02-22T19:08:04.229Z,7.90
2018-02-22T19:10:34.109Z,8.93
2018-02-22T19:13:03.325Z,9.85
2018-02-22T19:15:33.121Z,8.43
2018-02-22T19:18:02.358Z,6.68
2018-02-22T19:20:31.666Z,6.93
2018-02-22T19:23:00.935Z,7.80
2018-02-22T19:25:30.266Z,5.95
2018-02-22T19:27:59.497Z,6.93
2018-02-22T19:30:28.940Z,13.62
2018-02-22T19:32:58.164Z,5.75
2018-02-22T19:35:27.408Z,7.10
2018-02-22T19:37:56.720Z,6.93
2018-02-22T19:40:25.947Z,5.55
2018-02-22T19:42:55.340Z,5.70
2018-02-22T19:45:27.784Z,6.45
2018-02-22T19:47:57.111Z,7.87
2018-02-22T19:50:26.320Z,5.72
2018-02-22T19:52:57.140Z,5.82
2018-02-22T19:55:26.487Z,6.90
2018-02-22T19:57:55.696Z,6.25
2018-02-22T20:00:24.997Z,6.20
2018-02-22T20:02:54.320Z,5.43
2018-02-22T20:05:23.635Z,5.50
2018-02-22T20:07:52.872Z,6.03
2018-02-22T20:10:22.192Z,5.18
2018-02-22T20:12:51.407Z,4.93
2018-02-22T20:15:20.633Z,4.97
2018-02-22T20:17:49.996Z,5.18
2018-02-22T20:20:19.172Z,4.90
2018-02-22T20:22:48.473Z,5.57
2018-02-22T20:25:17.688Z,5.05
2018-02-22T20:27:47.392Z,5.15
2018-02-22T20:30:17.364Z,4.45
2018-02-22T20:32:46.686Z,5.03
2018-02-22T20:35:15.906Z,5.55
2018-02-22T20:37:45.922Z,5.10
2018-02-22T20:40:15.203Z,5.95
2018-02-22T20:42:44.421Z,6.25
2018-02-22T20:45:14.648Z,5.20
2018-02-22T20:47:43.867Z,4.85
2018-02-22T20:50:13.168Z,4.55
2018-02-22T20:55:48.889Z,5.00
2018-02-22T20:58:18.119Z,4.90
2018-02-22T21:00:48.173Z,5.30
2018-02-22T21:03:30.127Z,4.80
2018-02-22T21:05:59.492Z,5.35
2018-02-22T21:08:29.389Z,4.75
2018-02-22T21:10:59.310Z,7.30
2018-02-22T21:13:28.532Z,4.87
2018-02-22T21:15:57.867Z,12.82
2018-02-22T21:18:27.559Z,4.70
2018-02-22T21:20:56.865Z,4.85
2018-02-22T21:23:26.249Z,6.70
2018-02-22T21:25:55.480Z,8.13
2018-02-22T21:28:24.820Z,5.90
2018-02-22T21:30:54.041Z,5.65
2018-02-22T21:33:23.366Z,8.00
2018-02-22T21:35:52.585Z,6.10
2018-02-22T21:38:21.942Z,7.55
2018-02-22T21:40:51.165Z,5.40
2018-02-22T21:43:21.220Z,6.80
2018-02-22T21:45:50.514Z,5.50
2018-02-22T21:48:19.746Z,4.62
2018-02-22T21:50:49.164Z,7.03
2018-02-22T21:53:18.393Z,5.50
2018-02-22T21:55:47.771Z,4.50
2018-02-22T21:58:16.991Z,5.50
2018-02-22T22:00:46.366Z,6.28
2018-02-22T22:03:15.600Z,20.02
2018-02-22T22:05:44.917Z,11.90
2018-02-22T22:08:14.145Z,5.45
2018-02-22T22:10:43.492Z,4.65
2018-02-22T22:13:12.700Z,5.82
2018-02-22T22:15:43.274Z,9.77
2018-02-22T22:18:12.703Z,7.30
2018-02-22T22:20:42.153Z,5.97
2018-02-22T22:23:11.504Z,6.90
2018-02-22T22:25:41.034Z,12.68
2018-02-22T22:28:11.150Z,6.30
2018-02-22T22:30:40.879Z,4.70
2018-02-22T22:33:10.961Z,5.25
2018-02-22T22:35:40.173Z,5.00
2018-02-22T22:38:09.487Z,8.25
2018-02-22T22:40:38.700Z,5.60
2018-02-22T22:43:08.176Z,5.45
2018-02-22T22:45:37.576Z,9.35
2018-02-22T22:48:07.476Z,5.60
2018-02-22T22:50:36.816Z,9.05
2018-02-22T22:53:06.046Z,5.10
2018-02-22T22:55:35.706Z,8.82
2018-02-22T22:58:06.048Z,5.50
2018-02-22T23:00:35.532Z,6.55
2018-02-22T23:03:04.755Z,7.68
2018-02-22T23:05:34.076Z,6.35
2018-02-22T23:08:03.350Z,10.10
2018-02-22T23:10:32.757Z,12.77
2018-02-22T23:13:02.778Z,6.50
2018-02-22T23:15:32.987Z,5.80
2018-02-22T23:18:02.221Z,5.53
2018-02-22T23:20:31.579Z,6.10
2018-02-22T23:23:00.799Z,5.20
2018-02-22T23:25:30.901Z,6.68
2018-02-22T23:28:00.214Z,5.30
2018-02-22T23:30:29.396Z,5.97
2018-02-22T23:32:58.712Z,6.62
2018-02-22T23:35:28.703Z,8.25
2018-02-22T23:37:58.231Z,8.20
2018-02-22T23:40:33.389Z,7.70
2018-02-22T23:43:02.701Z,9.23
2018-02-22T23:45:32.021Z,6.35
2018-02-22T23:48:01.228Z,4.85
2018-02-22T23:50:30.497Z,5.60
2018-02-22T23:52:59.856Z,6.70
2018-02-22T23:55:29.090Z,7.97
2018-02-22T23:57:58.456Z,5.68
